Jrs Mira — V2FS4 — position and weather

sailwx.info

Track history (hours):
 
Tides and Currents Weather Stations Pressure Air Temp Water Temp Dewpoint Dewpoint Depression Visibility Wind Speed Wind Dir Waves Ship Positions

Jrs Mira

Last reported at 2014-Sep-16 14:33 UTC. Time now 2014-Sep-16 15:33 UTC.
Position N 51°02' E 002°16'.

Length 107 m; draft 5.2 m.

Type: Cargo ship. MMSI: 305780000.

Date/timePositionNaut miles runAvg speedWind from/ knotsBaromVisibWave heightAir tempDewpointWater temp
2014-Sep-16 14:33N 51°02' E 002°16'0 0.0
2014-Sep-16 13:30N 51°02' E 002°16'0 0.0
2014-Sep-16 12:27N 51°02' E 002°16'0 0.0
2014-Sep-16 11:27N 51°02' E 002°16'0 0.0
2014-Sep-16 10:33N 51°02' E 002°16'0 0.0
2014-Sep-16 09:33N 51°02' E 002°16'0 0.0
2014-Sep-16 08:33N 51°02' E 002°16'0 0.0
2014-Sep-16 07:33N 51°02' E 002°16'0 0.0
2014-Sep-16 06:33N 51°02' E 002°16'0 0.0
2014-Sep-16 05:33N 51°02' E 002°16'0 0.0
2014-Sep-16 04:33N 51°02' E 002°16'0 0.0
2014-Sep-16 03:33N 51°02' E 002°16'0 0.0
2014-Sep-16 02:33N 51°02' E 002°16'0 0.0
2014-Sep-16 01:30N 51°02' E 002°16'0 0.0
2014-Sep-16 00:33N 51°02' E 002°16'0 0.0
2014-Sep-15 23:34N 51°02' E 002°16'0 0.0
2014-Sep-15 22:33N 51°02' E 002°16'0 0.0
2014-Sep-15 21:33N 51°02' E 002°16'0 0.0
2014-Sep-15 20:33N 51°02' E 002°16'0 0.0
2014-Sep-15 19:27N 51°02' E 002°16'0 0.0
2014-Sep-15 18:29N 51°02' E 002°16'0 0.0
2014-Sep-15 17:30N 51°02' E 002°16'0 0.0
2014-Sep-15 16:27N 51°02' E 002°16'0 0.0
2014-Sep-15 15:27N 51°02' E 002°16'0 0.0
2014-Sep-15 14:32N 51°02' E 002°16'0 0.0
2014-Sep-15 13:21N 51°02' E 002°16'0 0.0
2014-Sep-15 12:33N 51°02' E 002°16'0 0.0
2014-Sep-15 11:33N 51°02' E 002°16'0 0.0
2014-Sep-15 10:30N 51°02' E 002°16'0 0.0
2014-Sep-15 09:32N 51°02' E 002°16'0 0.0
2014-Sep-15 08:30N 51°02' E 002°16'0 0.0
2014-Sep-15 07:17N 51°02' E 002°16'0 0.0
2014-Sep-15 06:33N 51°02' E 002°16'0 0.0
2014-Sep-15 05:21N 51°02' E 002°16'0 0.0
2014-Sep-15 03:30N 51°02' E 002°16'0 0.0
2014-Sep-15 02:09N 51°02' E 002°16'0 0.0
2014-Sep-15 01:23N 51°02' E 002°16'0 0.0
2014-Sep-15 00:11N 51°02' E 002°16'0 0.0
2014-Sep-14 23:24N 51°02' E 002°16'0 0.0
2014-Sep-14 22:27N 51°02' E 002°16'0 0.0
2014-Sep-14 21:27N 51°02' E 002°16'0 0.0
2014-Sep-14 20:08N 51°02' E 002°16'0 0.0
2014-Sep-14 19:26N 51°02' E 002°16'0 0.0
2014-Sep-14 18:18N 51°02' E 002°16'0 0.0
2014-Sep-14 17:32N 51°02' E 002°16'0 0.0
2014-Sep-14 16:33N 51°02' E 002°16'0 0.0
2014-Sep-14 15:32N 51°02' E 002°16'0 0.0
2014-Sep-14 14:32N 51°02' E 002°16'0 0.0
2014-Sep-14 13:26N 51°02' E 002°16'0 0.0
2014-Sep-14 12:33N 51°02' E 002°16'0 0.0
2014-Sep-14 11:30N 51°02' E 002°16'0 0.0
2014-Sep-14 10:26N 51°02' E 002°16'0 0.0
2014-Sep-14 09:33N 51°02' E 002°16'0 0.0
2014-Sep-14 08:32N 51°02' E 002°16'0 0.0
2014-Sep-14 07:32N 51°02' E 002°16'0 0.0
2014-Sep-14 06:32N 51°02' E 002°16'0 0.0
2014-Sep-14 05:26N 51°02' E 002°16'0 0.0
2014-Sep-14 04:29N 51°02' E 002°16'0 0.0
2014-Sep-14 03:32N 51°02' E 002°16'0 0.0
2014-Sep-14 02:29N 51°02' E 002°16'0 0.0
2014-Sep-14 01:26N 51°02' E 002°16'0 0.0
2014-Sep-13 21:26N 51°02' E 002°16'0 0.0
2014-Sep-13 19:26N 51°02' E 002°16'0 0.0
2014-Sep-13 18:30N 51°02' E 002°16'0 0.0
2014-Sep-13 16:27N 51°02' E 002°16'0 0.0
2014-Sep-13 15:32N 51°02' E 002°16'0 0.0
2014-Sep-13 14:26N 51°02' E 002°16'0 0.0
2014-Sep-13 13:23N 51°02' E 002°16'0 0.0
2014-Sep-13 12:23N 51°02' E 002°16'0 0.0
2014-Sep-13 11:32N 51°02' E 002°16'0 0.4
2014-Sep-13 10:32N 51°02' E 002°16'3 3.2
2014-Sep-13 09:28N 51°03' E 002°21'5 5.9
2014-Sep-13 08:33N 51°04' E 002°13'1410.4
2014-Sep-13 07:14N 51°02' E 001°51'1 2.0
2014-Sep-13 06:31N 51°03' E 001°50'0 0.1
2014-Sep-13 05:31N 51°03' E 001°50'2 2.1
2014-Sep-13 04:33N 51°05' E 001°48'7 6.6
2014-Sep-13 03:33N 51°10' E 001°42'5 4.6
2014-Sep-13 02:34N 51°14' E 001°47'9 8.8
2014-Sep-13 01:33N 51°21' E 001°55'1211.9
2014-Sep-13 00:33N 51°31' E 002°06'1413.7
2014-Sep-12 23:33N 51°41' E 002°21'3313.3
2014-Sep-12 21:05N 52°02' E 003°02'1312.9
2014-Sep-12 20:06N 52°03' E 003°22'712.6
2014-Sep-12 19:33N 52°03' E 003°33'1211.6
2014-Sep-12 18:33N 52°02' E 003°52'18 9.0
2014-Sep-12 16:33N 51°54' E 004°18'1 0.9
2014-Sep-12 15:32N 51°54' E 004°20'0 0.0
2014-Sep-12 14:32N 51°54' E 004°20'0 0.0
2014-Sep-12 13:32N 51°54' E 004°20'0 0.0
2014-Sep-12 12:32N 51°54' E 004°20'0 0.0
2014-Sep-12 11:32N 51°54' E 004°20'0 0.0
2014-Sep-12 10:32N 51°54' E 004°20'0 0.0
2014-Sep-12 09:32N 51°54' E 004°20'0 0.0
2014-Sep-12 08:32N 51°54' E 004°20'0 0.0
2014-Sep-12 07:32N 51°54' E 004°20'0 0.0
2014-Sep-12 06:32N 51°54' E 004°20'0 0.0
2014-Sep-12 05:32N 51°54' E 004°20'0 0.0
2014-Sep-12 04:32N 51°54' E 004°20'0 0.0
2014-Sep-12 03:32N 51°54' E 004°20'0 0.0
2014-Sep-12 02:32N 51°54' E 004°20'0 0.0
2014-Sep-12 01:32N 51°54' E 004°20'0 0.0
2014-Sep-12 00:32N 51°54' E 004°20'0 0.0
2014-Sep-11 23:32N 51°54' E 004°20'0 0.0
2014-Sep-11 22:32N 51°54' E 004°20'0 0.0
2014-Sep-11 21:32N 51°54' E 004°20'0 0.0
2014-Sep-11 20:32N 51°54' E 004°20'0 0.0
2014-Sep-11 19:32N 51°54' E 004°20'0 0.0
2014-Sep-11 18:32N 51°54' E 004°20'0 0.0
2014-Sep-11 17:32N 51°54' E 004°20'0 0.0
2014-Sep-11 16:32N 51°54' E 004°20'0 0.0
2014-Sep-11 15:32N 51°54' E 004°20'0 0.0
2014-Sep-11 14:32N 51°54' E 004°20'0 0.0
2014-Sep-11 13:32N 51°54' E 004°20'0 0.0
2014-Sep-11 12:32N 51°54' E 004°20'0 0.0
2014-Sep-11 11:32N 51°54' E 004°20'0 0.0
2014-Sep-11 10:32N 51°54' E 004°20'0 0.0
2014-Sep-11 09:32N 51°54' E 004°20'0 0.0
2014-Sep-11 08:32N 51°54' E 004°20'0 0.0
2014-Sep-11 07:32N 51°54' E 004°20'0 0.0
2014-Sep-11 06:32N 51°54' E 004°20'0 0.0
2014-Sep-11 05:29N 51°54' E 004°20'0 0.0
2014-Sep-11 04:32N 51°54' E 004°20'0 0.0
2014-Sep-11 03:32N 51°54' E 004°20'0 0.0
2014-Sep-11 02:32N 51°54' E 004°20'0 0.0
2014-Sep-11 01:32N 51°54' E 004°20'0 0.0
2014-Sep-11 00:32N 51°54' E 004°20'0 0.0
2014-Sep-10 23:29N 51°54' E 004°20'0 0.0
2014-Sep-10 22:29N 51°54' E 004°20'0 0.0
2014-Sep-10 21:32N 51°54' E 004°20'0 0.0
2014-Sep-10 20:32N 51°54' E 004°20'0 0.0
2014-Sep-10 19:32N 51°54' E 004°20'0 0.0
2014-Sep-10 18:32N 51°54' E 004°20'0 0.0
2014-Sep-10 17:29N 51°54' E 004°20'0 0.0
2014-Sep-10 16:32N 51°54' E 004°20'0 0.0
2014-Sep-10 15:23N 51°54' E 004°20'0 0.0
2014-Sep-10 14:32N 51°54' E 004°20'0 0.0
2014-Sep-10 13:29N 51°54' E 004°20'0 0.0
2014-Sep-10 12:32N 51°54' E 004°20'0 0.0
2014-Sep-10 11:32N 51°54' E 004°20'0 0.0
2014-Sep-10 10:29N 51°54' E 004°20'0 0.0
2014-Sep-10 09:33N 51°54' E 004°20'0 0.0
2014-Sep-10 08:33N 51°54' E 004°20'0 0.0
2014-Sep-10 07:33N 51°54' E 004°20'0 0.0
2014-Sep-10 06:33N 51°54' E 004°20'0 0.0
2014-Sep-10 05:33N 51°54' E 004°20'0 0.0
2014-Sep-10 04:33N 51°54' E 004°20'0 0.0
2014-Sep-10 03:33N 51°54' E 004°20'0 0.0
2014-Sep-10 02:33N 51°54' E 004°20'0 0.0
2014-Sep-10 01:33N 51°54' E 004°20'0 0.0
2014-Sep-10 00:33N 51°54' E 004°20'0 0.0
2014-Sep-09 23:33N 51°54' E 004°20'0 0.0
2014-Sep-09 22:33N 51°54' E 004°20'0 0.0
2014-Sep-09 21:33N 51°54' E 004°20'0 0.0
2014-Sep-09 20:33N 51°54' E 004°20'0 0.0
2014-Sep-09 19:33N 51°54' E 004°20'0 0.0
2014-Sep-09 18:34N 51°54' E 004°20'0 0.0
2014-Sep-09 17:33N 51°54' E 004°20'0 0.0
2014-Sep-09 16:33N 51°54' E 004°20'0 0.0
2014-Sep-09 15:33N 51°54' E 004°20'0 0.0
2014-Sep-09 14:30N 51°54' E 004°20'0 0.0
2014-Sep-09 13:33N 51°54' E 004°20'0 0.0
2014-Sep-09 12:33N 51°54' E 004°20'0 0.0
2014-Sep-09 11:34N 51°54' E 004°20'0 0.1
2014-Sep-09 10:34N 51°54' E 004°20'8 7.8
2014-Sep-09 09:34N 51°58' E 004°09'9 8.9
2014-Sep-09 08:34N 51°60' E 003°55'10 8.4
2014-Sep-09 07:25N 51°59' E 003°40'6 5.5
2014-Sep-09 06:15N 51°56' E 003°30'8 9.9
2014-Sep-09 05:27N 51°54' E 003°18'910.2
2014-Sep-09 04:33N 51°51' E 003°04'1110.8
2014-Sep-09 03:31N 51°48' E 002°46'1111.1
2014-Sep-09 02:33N 51°42' E 002°32'1212.2
2014-Sep-09 01:33N 51°32' E 002°20'1312.2
2014-Sep-09 00:28N 51°21' E 002°09'1111.7
2014-Sep-08 23:31N 51°12' E 001°58'1212.8
2014-Sep-08 22:33N 51°04' E 001°43'3210.7
2014-Sep-08 19:33N 50°38' E 001°12'14 9.6
2014-Sep-08 18:08N 50°29' E 000°57'7 9.3
2014-Sep-08 17:24N 50°26' E 000°47'8 9.1
2014-Sep-08 16:34N 50°23' E 000°36'7 7.4
2014-Sep-08 15:33N 50°22' E 000°25'8 8.4
2014-Sep-08 14:33N 50°19' E 000°12'283 8.5
2014-Sep-07 05:23N 47°58' W 006°03'8 9.4
2014-Sep-07 04:32N 47°52' W 005°56'10 9.6
2014-Sep-07 03:32N 47°44' W 005°47'9 9.4
2014-Sep-07 02:33N 47°38' W 005°37'9 6.6
2014-Sep-07 01:09N 47°28' W 005°36'  
Track history (hours):
 
Tides and Currents Weather Stations Pressure Air Temp Water Temp Dewpoint Dewpoint Depression Visibility Wind Speed Wind Dir Waves Ship Positions

Jrs Mira

Last reported at 2014-Sep-16 14:33 UTC. Time now 2014-Sep-16 15:33 UTC.
Position N 51°02' E 002°16'.

Length 107 m; draft 5.2 m.

Type: Cargo ship. MMSI: 305780000.

Date/timePositionNaut miles runAvg speedWind from/ knotsBaromVisibWave heightAir tempDewpointWater temp
2014-Sep-16 14:33N 51°02' E 002°16'0 0.0
2014-Sep-16 13:30N 51°02' E 002°16'0 0.0
2014-Sep-16 12:27N 51°02' E 002°16'0 0.0
2014-Sep-16 11:27N 51°02' E 002°16'0 0.0
2014-Sep-16 10:33N 51°02' E 002°16'0 0.0
2014-Sep-16 09:33N 51°02' E 002°16'0 0.0
2014-Sep-16 08:33N 51°02' E 002°16'0 0.0
2014-Sep-16 07:33N 51°02' E 002°16'0 0.0
2014-Sep-16 06:33N 51°02' E 002°16'0 0.0
2014-Sep-16 05:33N 51°02' E 002°16'0 0.0
2014-Sep-16 04:33N 51°02' E 002°16'0 0.0
2014-Sep-16 03:33N 51°02' E 002°16'0 0.0
2014-Sep-16 02:33N 51°02' E 002°16'0 0.0
2014-Sep-16 01:30N 51°02' E 002°16'0 0.0
2014-Sep-16 00:33N 51°02' E 002°16'0 0.0
2014-Sep-15 23:34N 51°02' E 002°16'0 0.0
2014-Sep-15 22:33N 51°02' E 002°16'0 0.0
2014-Sep-15 21:33N 51°02' E 002°16'0 0.0
2014-Sep-15 20:33N 51°02' E 002°16'0 0.0
2014-Sep-15 19:27N 51°02' E 002°16'0 0.0
2014-Sep-15 18:29N 51°02' E 002°16'0 0.0
2014-Sep-15 17:30N 51°02' E 002°16'0 0.0
2014-Sep-15 16:27N 51°02' E 002°16'0 0.0
2014-Sep-15 15:27N 51°02' E 002°16'0 0.0
2014-Sep-15 14:32N 51°02' E 002°16'0 0.0
2014-Sep-15 13:21N 51°02' E 002°16'0 0.0
2014-Sep-15 12:33N 51°02' E 002°16'0 0.0
2014-Sep-15 11:33N 51°02' E 002°16'0 0.0
2014-Sep-15 10:30N 51°02' E 002°16'0 0.0
2014-Sep-15 09:32N 51°02' E 002°16'0 0.0
2014-Sep-15 08:30N 51°02' E 002°16'0 0.0
2014-Sep-15 07:17N 51°02' E 002°16'0 0.0
2014-Sep-15 06:33N 51°02' E 002°16'0 0.0
2014-Sep-15 05:21N 51°02' E 002°16'0 0.0
2014-Sep-15 03:30N 51°02' E 002°16'0 0.0
2014-Sep-15 02:09N 51°02' E 002°16'0 0.0
2014-Sep-15 01:23N 51°02' E 002°16'0 0.0
2014-Sep-15 00:11N 51°02' E 002°16'0 0.0
2014-Sep-14 23:24N 51°02' E 002°16'0 0.0
2014-Sep-14 22:27N 51°02' E 002°16'0 0.0
2014-Sep-14 21:27N 51°02' E 002°16'0 0.0
2014-Sep-14 20:08N 51°02' E 002°16'0 0.0
2014-Sep-14 19:26N 51°02' E 002°16'0 0.0
2014-Sep-14 18:18N 51°02' E 002°16'0 0.0
2014-Sep-14 17:32N 51°02' E 002°16'0 0.0
2014-Sep-14 16:33N 51°02' E 002°16'0 0.0
2014-Sep-14 15:32N 51°02' E 002°16'0 0.0
2014-Sep-14 14:32N 51°02' E 002°16'0 0.0
2014-Sep-14 13:26N 51°02' E 002°16'0 0.0
2014-Sep-14 12:33N 51°02' E 002°16'0 0.0
2014-Sep-14 11:30N 51°02' E 002°16'0 0.0
2014-Sep-14 10:26N 51°02' E 002°16'0 0.0
2014-Sep-14 09:33N 51°02' E 002°16'0 0.0
2014-Sep-14 08:32N 51°02' E 002°16'0 0.0
2014-Sep-14 07:32N 51°02' E 002°16'0 0.0
2014-Sep-14 06:32N 51°02' E 002°16'0 0.0
2014-Sep-14 05:26N 51°02' E 002°16'0 0.0
2014-Sep-14 04:29N 51°02' E 002°16'0 0.0
2014-Sep-14 03:32N 51°02' E 002°16'0 0.0
2014-Sep-14 02:29N 51°02' E 002°16'0 0.0
2014-Sep-14 01:26N 51°02' E 002°16'0 0.0
2014-Sep-13 21:26N 51°02' E 002°16'0 0.0
2014-Sep-13 19:26N 51°02' E 002°16'0 0.0
2014-Sep-13 18:30N 51°02' E 002°16'0 0.0
2014-Sep-13 16:27N 51°02' E 002°16'0 0.0
2014-Sep-13 15:32N 51°02' E 002°16'0 0.0
2014-Sep-13 14:26N 51°02' E 002°16'0 0.0
2014-Sep-13 13:23N 51°02' E 002°16'0 0.0
2014-Sep-13 12:23N 51°02' E 002°16'0 0.0
2014-Sep-13 11:32N 51°02' E 002°16'0 0.4
2014-Sep-13 10:32N 51°02' E 002°16'3 3.2
2014-Sep-13 09:28N 51°03' E 002°21'5 5.9
2014-Sep-13 08:33N 51°04' E 002°13'1410.4
2014-Sep-13 07:14N 51°02' E 001°51'1 2.0
2014-Sep-13 06:31N 51°03' E 001°50'0 0.1
2014-Sep-13 05:31N 51°03' E 001°50'2 2.1
2014-Sep-13 04:33N 51°05' E 001°48'7 6.6
2014-Sep-13 03:33N 51°10' E 001°42'5 4.6
2014-Sep-13 02:34N 51°14' E 001°47'9 8.8
2014-Sep-13 01:33N 51°21' E 001°55'1211.9
2014-Sep-13 00:33N 51°31' E 002°06'1413.7
2014-Sep-12 23:33N 51°41' E 002°21'3313.3
2014-Sep-12 21:05N 52°02' E 003°02'1312.9
2014-Sep-12 20:06N 52°03' E 003°22'712.6
2014-Sep-12 19:33N 52°03' E 003°33'1211.6
2014-Sep-12 18:33N 52°02' E 003°52'18 9.0
2014-Sep-12 16:33N 51°54' E 004°18'1 0.9
2014-Sep-12 15:32N 51°54' E 004°20'0 0.0
2014-Sep-12 14:32N 51°54' E 004°20'0 0.0
2014-Sep-12 13:32N 51°54' E 004°20'0 0.0
2014-Sep-12 12:32N 51°54' E 004°20'0 0.0
2014-Sep-12 11:32N 51°54' E 004°20'0 0.0
2014-Sep-12 10:32N 51°54' E 004°20'0 0.0
2014-Sep-12 09:32N 51°54' E 004°20'0 0.0
2014-Sep-12 08:32N 51°54' E 004°20'0 0.0
2014-Sep-12 07:32N 51°54' E 004°20'0 0.0
2014-Sep-12 06:32N 51°54' E 004°20'0 0.0
2014-Sep-12 05:32N 51°54' E 004°20'0 0.0
2014-Sep-12 04:32N 51°54' E 004°20'0 0.0
2014-Sep-12 03:32N 51°54' E 004°20'0 0.0
2014-Sep-12 02:32N 51°54' E 004°20'0 0.0
2014-Sep-12 01:32N 51°54' E 004°20'0 0.0
2014-Sep-12 00:32N 51°54' E 004°20'0 0.0
2014-Sep-11 23:32N 51°54' E 004°20'0 0.0
2014-Sep-11 22:32N 51°54' E 004°20'0 0.0
2014-Sep-11 21:32N 51°54' E 004°20'0 0.0
2014-Sep-11 20:32N 51°54' E 004°20'0 0.0
2014-Sep-11 19:32N 51°54' E 004°20'0 0.0
2014-Sep-11 18:32N 51°54' E 004°20'0 0.0
2014-Sep-11 17:32N 51°54' E 004°20'0 0.0
2014-Sep-11 16:32N 51°54' E 004°20'0 0.0
2014-Sep-11 15:32N 51°54' E 004°20'0 0.0
2014-Sep-11 14:32N 51°54' E 004°20'0 0.0
2014-Sep-11 13:32N 51°54' E 004°20'0 0.0
2014-Sep-11 12:32N 51°54' E 004°20'0 0.0
2014-Sep-11 11:32N 51°54' E 004°20'0 0.0
2014-Sep-11 10:32N 51°54' E 004°20'0 0.0
2014-Sep-11 09:32N 51°54' E 004°20'0 0.0
2014-Sep-11 08:32N 51°54' E 004°20'0 0.0
2014-Sep-11 07:32N 51°54' E 004°20'0 0.0
2014-Sep-11 06:32N 51°54' E 004°20'0 0.0
2014-Sep-11 05:29N 51°54' E 004°20'0 0.0
2014-Sep-11 04:32N 51°54' E 004°20'0 0.0
2014-Sep-11 03:32N 51°54' E 004°20'0 0.0
2014-Sep-11 02:32N 51°54' E 004°20'0 0.0
2014-Sep-11 01:32N 51°54' E 004°20'0 0.0
2014-Sep-11 00:32N 51°54' E 004°20'0 0.0
2014-Sep-10 23:29N 51°54' E 004°20'0 0.0
2014-Sep-10 22:29N 51°54' E 004°20'0 0.0
2014-Sep-10 21:32N 51°54' E 004°20'0 0.0
2014-Sep-10 20:32N 51°54' E 004°20'0 0.0
2014-Sep-10 19:32N 51°54' E 004°20'0 0.0
2014-Sep-10 18:32N 51°54' E 004°20'0 0.0
2014-Sep-10 17:29N 51°54' E 004°20'0 0.0
2014-Sep-10 16:32N 51°54' E 004°20'0 0.0
2014-Sep-10 15:23N 51°54' E 004°20'0 0.0
2014-Sep-10 14:32N 51°54' E 004°20'0 0.0
2014-Sep-10 13:29N 51°54' E 004°20'0 0.0
2014-Sep-10 12:32N 51°54' E 004°20'0 0.0
2014-Sep-10 11:32N 51°54' E 004°20'0 0.0
2014-Sep-10 10:29N 51°54' E 004°20'0 0.0
2014-Sep-10 09:33N 51°54' E 004°20'0 0.0
2014-Sep-10 08:33N 51°54' E 004°20'0 0.0
2014-Sep-10 07:33N 51°54' E 004°20'0 0.0
2014-Sep-10 06:33N 51°54' E 004°20'0 0.0
2014-Sep-10 05:33N 51°54' E 004°20'0 0.0
2014-Sep-10 04:33N 51°54' E 004°20'0 0.0
2014-Sep-10 03:33N 51°54' E 004°20'0 0.0
2014-Sep-10 02:33N 51°54' E 004°20'0 0.0
2014-Sep-10 01:33N 51°54' E 004°20'0 0.0
2014-Sep-10 00:33N 51°54' E 004°20'0 0.0
2014-Sep-09 23:33N 51°54' E 004°20'0 0.0
2014-Sep-09 22:33N 51°54' E 004°20'0 0.0
2014-Sep-09 21:33N 51°54' E 004°20'0 0.0
2014-Sep-09 20:33N 51°54' E 004°20'0 0.0
2014-Sep-09 19:33N 51°54' E 004°20'0 0.0
2014-Sep-09 18:34N 51°54' E 004°20'0 0.0
2014-Sep-09 17:33N 51°54' E 004°20'0 0.0
2014-Sep-09 16:33N 51°54' E 004°20'0 0.0
2014-Sep-09 15:33N 51°54' E 004°20'0 0.0
2014-Sep-09 14:30N 51°54' E 004°20'0 0.0
2014-Sep-09 13:33N 51°54' E 004°20'0 0.0
2014-Sep-09 12:33N 51°54' E 004°20'0 0.0
2014-Sep-09 11:34N 51°54' E 004°20'0 0.1
2014-Sep-09 10:34N 51°54' E 004°20'8 7.8
2014-Sep-09 09:34N 51°58' E 004°09'9 8.9
2014-Sep-09 08:34N 51°60' E 003°55'10 8.4
2014-Sep-09 07:25N 51°59' E 003°40'6 5.5
2014-Sep-09 06:15N 51°56' E 003°30'8 9.9
2014-Sep-09 05:27N 51°54' E 003°18'910.2
2014-Sep-09 04:33N 51°51' E 003°04'1110.8
2014-Sep-09 03:31N 51°48' E 002°46'1111.1
2014-Sep-09 02:33N 51°42' E 002°32'1212.2
2014-Sep-09 01:33N 51°32' E 002°20'1312.2
2014-Sep-09 00:28N 51°21' E 002°09'1111.7
2014-Sep-08 23:31N 51°12' E 001°58'1212.8
2014-Sep-08 22:33N 51°04' E 001°43'3210.7
2014-Sep-08 19:33N 50°38' E 001°12'14 9.6
2014-Sep-08 18:08N 50°29' E 000°57'7 9.3
2014-Sep-08 17:24N 50°26' E 000°47'8 9.1
2014-Sep-08 16:34N 50°23' E 000°36'7 7.4
2014-Sep-08 15:33N 50°22' E 000°25'8 8.4
2014-Sep-08 14:33N 50°19' E 000°12'283 8.5
2014-Sep-07 05:23N 47°58' W 006°03'8 9.4
2014-Sep-07 04:32N 47°52' W 005°56'10 9.6
2014-Sep-07 03:32N 47°44' W 005°47'9 9.4
2014-Sep-07 02:33N 47°38' W 005°37'9 6.6
2014-Sep-07 01:09N 47°28' W 005°36'  

Dump ship's entire track history